sensor_id;sensor_type;location;lat;lon;timestamp;temperature;humidity
3156;DHT22;1588;50.892;7.082;2022-07-06T00:00:37;16.90;99.90
3156;DHT22;1588;50.892;7.082;2022-07-06T00:05:40;16.90;99.90
3156;DHT22;1588;50.892;7.082;2022-07-06T00:10:42;16.70;99.90
3156;DHT22;1588;50.892;7.082;2022-07-06T00:15:46;16.50;99.90
3156;DHT22;1588;50.892;7.082;2022-07-06T00:20:48;16.30;99.90
3156;DHT22;1588;50.892;7.082;2022-07-06T00:25:51;16.20;99.90
3156;DHT22;1588;50.892;7.082;2022-07-06T00:30:55;16.10;99.90
3156;DHT22;1588;50.892;7.082;2022-07-06T00:35:58;16.00;99.90
3156;DHT22;1588;50.892;7.082;2022-07-06T00:41:19;15.80;99.90
3156;DHT22;1588;50.892;7.082;2022-07-06T00:46:26;15.70;99.90
3156;DHT22;1588;50.892;7.082;2022-07-06T00:51:31;15.60;99.90
3156;DHT22;1588;50.892;7.082;2022-07-06T00:56:34;15.50;99.90
3156;DHT22;1588;50.892;7.082;2022-07-06T01:01:38;15.40;99.90
3156;DHT22;1588;50.892;7.082;2022-07-06T01:06:41;15.40;99.90
3156;DHT22;1588;50.892;7.082;2022-07-06T01:11:43;15.40;99.90
3156;DHT22;1588;50.892;7.082;2022-07-06T01:16:48;15.20;99.90
3156;DHT22;1588;50.892;7.082;2022-07-06T01:21:52;15.20;99.90
3156;DHT22;1588;50.892;7.082;2022-07-06T01:26:55;15.20;99.90
3156;DHT22;1588;50.892;7.082;2022-07-06T01:31:57;15.10;99.90
3156;DHT22;1588;50.892;7.082;2022-07-06T01:37:01;15.00;99.90
3156;DHT22;1588;50.892;7.082;2022-07-06T01:42:04;14.90;99.90
3156;DHT22;1588;50.892;7.082;2022-07-06T01:47:06;14.90;99.90
3156;DHT22;1588;50.892;7.082;2022-07-06T01:52:10;14.90;99.90
3156;DHT22;1588;50.892;7.082;2022-07-06T01:57:12;14.80;99.90
3156;DHT22;1588;50.892;7.082;2022-07-06T02:02:15;14.80;99.90
3156;DHT22;1588;50.892;7.082;2022-07-06T02:07:20;14.70;99.90
3156;DHT22;1588;50.892;7.082;2022-07-06T02:12:22;14.70;99.90
3156;DHT22;1588;50.892;7.082;2022-07-06T02:17:24;14.60;99.90
3156;DHT22;1588;50.892;7.082;2022-07-06T02:22:46;14.60;99.90
3156;DHT22;1588;50.892;7.082;2022-07-06T02:27:49;14.50;99.90
3156;DHT22;1588;50.892;7.082;2022-07-06T02:32:51;14.50;99.90
3156;DHT22;1588;50.892;7.082;2022-07-06T02:37:55;14.40;99.90
3156;DHT22;1588;50.892;7.082;2022-07-06T02:42:57;14.40;99.90
3156;DHT22;1588;50.892;7.082;2022-07-06T02:48:18;14.30;99.90
3156;DHT22;1588;50.892;7.082;2022-07-06T02:53:23;14.20;99.90
3156;DHT22;1588;50.892;7.082;2022-07-06T02:58:26;14.10;99.90
3156;DHT22;1588;50.892;7.082;2022-07-06T03:03:28;14.10;99.90
3156;DHT22;1588;50.892;7.082;2022-07-06T03:08:32;14.00;99.90
3156;DHT22;1588;50.892;7.082;2022-07-06T03:13:54;14.00;99.90
3156;DHT22;1588;50.892;7.082;2022-07-06T03:18:56;13.90;99.90
3156;DHT22;1588;50.892;7.082;2022-07-06T03:24:00;13.80;99.90
3156;DHT22;1588;50.892;7.082;2022-07-06T03:29:03;13.80;99.90
3156;DHT22;1588;50.892;7.082;2022-07-06T03:34:05;13.80;99.90
3156;DHT22;1588;50.892;7.082;2022-07-06T03:39:08;13.80;99.90
3156;DHT22;1588;50.892;7.082;2022-07-06T03:44:11;13.70;99.90
3156;DHT22;1588;50.892;7.082;2022-07-06T03:49:13;13.70;99.90
3156;DHT22;1588;50.892;7.082;2022-07-06T03:54:17;13.70;99.90
3156;DHT22;1588;50.892;7.082;2022-07-06T03:59:19;13.70;99.90
3156;DHT22;1588;50.892;7.082;2022-07-06T04:04:21;13.70;99.90
3156;DHT22;1588;50.892;7.082;2022-07-06T04:09:25;13.50;99.90
3156;DHT22;1588;50.892;7.082;2022-07-06T04:14:27;13.50;99.90
3156;DHT22;1588;50.892;7.082;2022-07-06T04:19:33;13.50;99.90
3156;DHT22;1588;50.892;7.082;2022-07-06T04:24:36;13.60;99.90
3156;DHT22;1588;50.892;7.082;2022-07-06T04:29:39;13.70;99.90
3156;DHT22;1588;50.892;7.082;2022-07-06T04:34:41;13.70;99.90
3156;DHT22;1588;50.892;7.082;2022-07-06T04:39:45;13.90;99.90
3156;DHT22;1588;50.892;7.082;2022-07-06T04:44:51;14.10;99.90
3156;DHT22;1588;50.892;7.082;2022-07-06T04:49:53;14.30;99.90
3156;DHT22;1588;50.892;7.082;2022-07-06T04:54:57;14.40;99.90
3156;DHT22;1588;50.892;7.082;2022-07-06T04:59:59;14.50;99.90
3156;DHT22;1588;50.892;7.082;2022-07-06T05:05:02;14.50;99.90
3156;DHT22;1588;50.892;7.082;2022-07-06T05:10:08;14.50;99.90
3156;DHT22;1588;50.892;7.082;2022-07-06T05:15:13;14.50;99.90
3156;DHT22;1588;50.892;7.082;2022-07-06T05:20:16;14.60;99.90
3156;DHT22;1588;50.892;7.082;2022-07-06T05:25:19;14.70;99.90
3156;DHT22;1588;50.892;7.082;2022-07-06T05:30:22;14.90;99.90
3156;DHT22;1588;50.892;7.082;2022-07-06T05:35:24;15.10;99.90
3156;DHT22;1588;50.892;7.082;2022-07-06T05:40:31;15.40;99.90
3156;DHT22;1588;50.892;7.082;2022-07-06T05:45:35;15.50;99.90
3156;DHT22;1588;50.892;7.082;2022-07-06T05:50:38;15.70;99.90
3156;DHT22;1588;50.892;7.082;2022-07-06T05:55:41;16.00;99.90
3156;DHT22;1588;50.892;7.082;2022-07-06T06:00:44;16.10;99.90
3156;DHT22;1588;50.892;7.082;2022-07-06T06:05:46;16.40;99.90
3156;DHT22;1588;50.892;7.082;2022-07-06T06:10:50;16.80;99.90
3156;DHT22;1588;50.892;7.082;2022-07-06T06:15:54;16.80;99.90
3156;DHT22;1588;50.892;7.082;2022-07-06T06:20:56;17.00;99.90
3156;DHT22;1588;50.892;7.082;2022-07-06T06:26:09;17.60;99.90
3156;DHT22;1588;50.892;7.082;2022-07-06T06:31:12;18.40;99.90
3156;DHT22;1588;50.892;7.082;2022-07-06T06:36:19;18.20;99.90
3156;DHT22;1588;50.892;7.082;2022-07-06T06:41:23;18.60;99.90
3156;DHT22;1588;50.892;7.082;2022-07-06T06:46:26;18.30;99.90
3156;DHT22;1588;50.892;7.082;2022-07-06T06:51:30;17.80;99.90
3156;DHT22;1588;50.892;7.082;2022-07-06T06:56:34;17.40;99.90
3156;DHT22;1588;50.892;7.082;2022-07-06T07:01:36;18.10;99.90
3156;DHT22;1588;50.892;7.082;2022-07-06T07:06:41;17.70;99.90
3156;DHT22;1588;50.892;7.082;2022-07-06T07:11:46;17.90;99.90
3156;DHT22;1588;50.892;7.082;2022-07-06T07:16:48;19.00;99.90
3156;DHT22;1588;50.892;7.082;2022-07-06T07:21:50;20.20;99.90
3156;DHT22;1588;50.892;7.082;2022-07-06T07:26:54;20.90;99.90
3156;DHT22;1588;50.892;7.082;2022-07-06T07:31:56;20.10;99.90
3156;DHT22;1588;50.892;7.082;2022-07-06T07:36:58;19.10;99.90
3156;DHT22;1588;50.892;7.082;2022-07-06T07:42:02;19.60;99.90
3156;DHT22;1588;50.892;7.082;2022-07-06T07:47:08;21.10;99.90
3156;DHT22;1588;50.892;7.082;2022-07-06T07:52:10;21.50;99.90
3156;DHT22;1588;50.892;7.082;2022-07-06T07:57:14;21.80;99.90
3156;DHT22;1588;50.892;7.082;2022-07-06T08:02:16;21.60;99.90
3156;DHT22;1588;50.892;7.082;2022-07-06T08:07:19;20.20;99.90
3156;DHT22;1588;50.892;7.082;2022-07-06T08:12:23;19.70;99.90
3156;DHT22;1588;50.892;7.082;2022-07-06T08:17:25;19.40;99.90
3156;DHT22;1588;50.892;7.082;2022-07-06T08:22:28;19.40;99.90
3156;DHT22;1588;50.892;7.082;2022-07-06T08:27:32;19.70;99.90
3156;DHT22;1588;50.892;7.082;2022-07-06T08:32:37;20.30;99.90
3156;DHT22;1588;50.892;7.082;2022-07-06T08:37:39;21.20;99.90
3156;DHT22;1588;50.892;7.082;2022-07-06T08:42:44;21.30;99.90
3156;DHT22;1588;50.892;7.082;2022-07-06T08:47:49;20.10;99.90
3156;DHT22;1588;50.892;7.082;2022-07-06T08:52:52;19.40;99.90
3156;DHT22;1588;50.892;7.082;2022-07-06T08:57:57;18.80;99.90
3156;DHT22;1588;50.892;7.082;2022-07-06T09:02:59;19.30;99.90
3156;DHT22;1588;50.892;7.082;2022-07-06T09:08:03;21.30;99.90
3156;DHT22;1588;50.892;7.082;2022-07-06T09:13:08;21.30;99.90
3156;DHT22;1588;50.892;7.082;2022-07-06T09:18:10;20.60;99.90
3156;DHT22;1588;50.892;7.082;2022-07-06T09:23:15;20.60;99.90
3156;DHT22;1588;50.892;7.082;2022-07-06T09:28:19;20.30;99.90
3156;DHT22;1588;50.892;7.082;2022-07-06T09:33:22;19.80;99.90
3156;DHT22;1588;50.892;7.082;2022-07-06T09:38:26;19.10;99.90
3156;DHT22;1588;50.892;7.082;2022-07-06T09:43:29;18.90;99.90
3156;DHT22;1588;50.892;7.082;2022-07-06T09:48:35;19.00;99.90
3156;DHT22;1588;50.892;7.082;2022-07-06T09:53:37;19.30;99.90
3156;DHT22;1588;50.892;7.082;2022-07-06T09:58:42;18.90;99.90
3156;DHT22;1588;50.892;7.082;2022-07-06T10:03:45;18.60;99.90
3156;DHT22;1588;50.892;7.082;2022-07-06T10:08:47;18.10;99.90
3156;DHT22;1588;50.892;7.082;2022-07-06T10:13:54;18.20;99.90
3156;DHT22;1588;50.892;7.082;2022-07-06T10:18:57;18.30;99.90
3156;DHT22;1588;50.892;7.082;2022-07-06T10:24:02;18.60;99.90
3156;DHT22;1588;50.892;7.082;2022-07-06T10:29:06;18.70;99.90
3156;DHT22;1588;50.892;7.082;2022-07-06T10:34:12;19.90;99.90
3156;DHT22;1588;50.892;7.082;2022-07-06T10:39:14;21.40;99.90
3156;DHT22;1588;50.892;7.082;2022-07-06T10:44:44;22.20;99.90
3156;DHT22;1588;50.892;7.082;2022-07-06T10:49:48;22.40;99.90
3156;DHT22;1588;50.892;7.082;2022-07-06T10:54:56;22.40;99.90
3156;DHT22;1588;50.892;7.082;2022-07-06T11:00:04;21.90;99.90
3156;DHT22;1588;50.892;7.082;2022-07-06T11:05:11;22.70;99.90
3156;DHT22;1588;50.892;7.082;2022-07-06T11:10:23;22.90;99.90
3156;DHT22;1588;50.892;7.082;2022-07-06T11:15:58;23.10;99.90
3156;DHT22;1588;50.892;7.082;2022-07-06T11:21:44;22.90;99.90
3156;DHT22;1588;50.892;7.082;2022-07-06T11:26:48;22.70;99.90
3156;DHT22;1588;50.892;7.082;2022-07-06T11:31:54;21.90;99.90
3156;DHT22;1588;50.892;7.082;2022-07-06T11:36:57;22.70;99.90
3156;DHT22;1588;50.892;7.082;2022-07-06T11:42:00;22.10;99.90
3156;DHT22;1588;50.892;7.082;2022-07-06T11:47:08;22.10;99.90
3156;DHT22;1588;50.892;7.082;2022-07-06T11:52:13;22.80;99.90
3156;DHT22;1588;50.892;7.082;2022-07-06T11:57:21;22.70;99.90
3156;DHT22;1588;50.892;7.082;2022-07-06T12:02:25;22.50;99.90
3156;DHT22;1588;50.892;7.082;2022-07-06T12:07:28;22.10;99.90
3156;DHT22;1588;50.892;7.082;2022-07-06T12:12:30;22.50;99.90
3156;DHT22;1588;50.892;7.082;2022-07-06T12:17:34;22.50;99.90
3156;DHT22;1588;50.892;7.082;2022-07-06T12:22:37;22.50;99.90
3156;DHT22;1588;50.892;7.082;2022-07-06T12:27:40;23.50;99.90
3156;DHT22;1588;50.892;7.082;2022-07-06T12:32:44;23.50;99.90
3156;DHT22;1588;50.892;7.082;2022-07-06T12:37:54;22.70;99.90
3156;DHT22;1588;50.892;7.082;2022-07-06T12:42:57;22.50;99.90
3156;DHT22;1588;50.892;7.082;2022-07-06T12:48:02;21.80;99.90
3156;DHT22;1588;50.892;7.082;2022-07-06T12:53:11;21.70;99.90
3156;DHT22;1588;50.892;7.082;2022-07-06T12:58:25;22.10;99.90
3156;DHT22;1588;50.892;7.082;2022-07-06T13:03:37;22.00;99.90
3156;DHT22;1588;50.892;7.082;2022-07-06T13:08:40;22.20;99.90
3156;DHT22;1588;50.892;7.082;2022-07-06T13:13:43;22.10;99.90
3156;DHT22;1588;50.892;7.082;2022-07-06T13:18:47;22.10;99.90
3156;DHT22;1588;50.892;7.082;2022-07-06T13:23:49;22.00;99.90
3156;DHT22;1588;50.892;7.082;2022-07-06T13:28:52;22.30;99.90
3156;DHT22;1588;50.892;7.082;2022-07-06T13:33:56;22.20;99.90
3156;DHT22;1588;50.892;7.082;2022-07-06T13:39:02;22.30;99.90
3156;DHT22;1588;50.892;7.082;2022-07-06T13:44:05;22.10;99.90
3156;DHT22;1588;50.892;7.082;2022-07-06T13:49:10;22.20;99.90
3156;DHT22;1588;50.892;7.082;2022-07-06T13:54:13;22.40;99.90
3156;DHT22;1588;50.892;7.082;2022-07-06T13:59:15;22.70;99.90
3156;DHT22;1588;50.892;7.082;2022-07-06T14:04:19;22.40;99.90
3156;DHT22;1588;50.892;7.082;2022-07-06T14:15:30;21.90;99.90
3156;DHT22;1588;50.892;7.082;2022-07-06T14:20:37;22.70;99.90
3156;DHT22;1588;50.892;7.082;2022-07-06T14:25:50;22.70;99.90
3156;DHT22;1588;50.892;7.082;2022-07-06T14:30:56;23.20;99.90
3156;DHT22;1588;50.892;7.082;2022-07-06T14:36:02;23.50;99.90
3156;DHT22;1588;50.892;7.082;2022-07-06T14:41:07;23.90;99.90
3156;DHT22;1588;50.892;7.082;2022-07-06T14:46:10;23.80;99.90
3156;DHT22;1588;50.892;7.082;2022-07-06T14:51:18;23.60;99.90
3156;DHT22;1588;50.892;7.082;2022-07-06T14:56:20;23.50;99.90
3156;DHT22;1588;50.892;7.082;2022-07-06T15:01:23;23.20;99.90
3156;DHT22;1588;50.892;7.082;2022-07-06T15:06:26;23.40;99.90
3156;DHT22;1588;50.892;7.082;2022-07-06T15:11:29;23.30;99.90
3156;DHT22;1588;50.892;7.082;2022-07-06T15:16:31;23.70;99.90
3156;DHT22;1588;50.892;7.082;2022-07-06T15:21:34;23.60;99.90
3156;DHT22;1588;50.892;7.082;2022-07-06T15:26:37;22.90;99.90
3156;DHT22;1588;50.892;7.082;2022-07-06T15:31:39;23.50;99.90
3156;DHT22;1588;50.892;7.082;2022-07-06T15:36:44;23.30;99.90
3156;DHT22;1588;50.892;7.082;2022-07-06T15:41:47;23.00;99.90
3156;DHT22;1588;50.892;7.082;2022-07-06T15:46:49;22.80;99.90
3156;DHT22;1588;50.892;7.082;2022-07-06T15:52:12;22.80;99.90
3156;DHT22;1588;50.892;7.082;2022-07-06T15:57:16;23.30;99.90
3156;DHT22;1588;50.892;7.082;2022-07-06T16:02:21;23.40;99.90
3156;DHT22;1588;50.892;7.082;2022-07-06T16:07:26;22.80;99.90
3156;DHT22;1588;50.892;7.082;2022-07-06T16:12:31;22.70;99.90
3156;DHT22;1588;50.892;7.082;2022-07-06T16:17:34;23.00;99.90
3156;DHT22;1588;50.892;7.082;2022-07-06T16:22:38;22.70;99.90
3156;DHT22;1588;50.892;7.082;2022-07-06T16:27:40;22.70;99.90
3156;DHT22;1588;50.892;7.082;2022-07-06T16:32:42;23.00;99.90
3156;DHT22;1588;50.892;7.082;2022-07-06T16:37:46;23.00;99.90
3156;DHT22;1588;50.892;7.082;2022-07-06T16:42:48;23.10;99.90
3156;DHT22;1588;50.892;7.082;2022-07-06T16:47:51;22.90;99.90
3156;DHT22;1588;50.892;7.082;2022-07-06T16:52:55;22.80;99.90
3156;DHT22;1588;50.892;7.082;2022-07-06T16:57:58;22.70;99.90
3156;DHT22;1588;50.892;7.082;2022-07-06T17:03:00;22.70;99.90
3156;DHT22;1588;50.892;7.082;2022-07-06T17:08:05;22.70;99.90
3156;DHT22;1588;50.892;7.082;2022-07-06T17:13:08;22.80;99.90
3156;DHT22;1588;50.892;7.082;2022-07-06T17:18:10;22.70;99.90
3156;DHT22;1588;50.892;7.082;2022-07-06T17:23:17;22.60;99.90
3156;DHT22;1588;50.892;7.082;2022-07-06T17:28:19;22.40;99.90
3156;DHT22;1588;50.892;7.082;2022-07-06T17:33:21;22.30;99.90
3156;DHT22;1588;50.892;7.082;2022-07-06T17:38:28;22.40;99.90
3156;DHT22;1588;50.892;7.082;2022-07-06T17:43:35;22.30;99.90
3156;DHT22;1588;50.892;7.082;2022-07-06T17:48:37;22.10;99.90
3156;DHT22;1588;50.892;7.082;2022-07-06T17:53:41;21.90;99.90
3156;DHT22;1588;50.892;7.082;2022-07-06T17:58:43;21.60;99.90
3156;DHT22;1588;50.892;7.082;2022-07-06T18:03:45;21.40;99.90
3156;DHT22;1588;50.892;7.082;2022-07-06T18:08:49;21.40;99.90
3156;DHT22;1588;50.892;7.082;2022-07-06T18:13:52;21.30;99.90
3156;DHT22;1588;50.892;7.082;2022-07-06T18:18:54;21.20;99.90
3156;DHT22;1588;50.892;7.082;2022-07-06T18:23:57;21.20;99.90
3156;DHT22;1588;50.892;7.082;2022-07-06T18:29:00;21.10;99.90
3156;DHT22;1588;50.892;7.082;2022-07-06T18:34:07;21.10;99.90
3156;DHT22;1588;50.892;7.082;2022-07-06T18:39:11;21.10;99.90
3156;DHT22;1588;50.892;7.082;2022-07-06T18:44:14;21.00;99.90
3156;DHT22;1588;50.892;7.082;2022-07-06T18:49:16;20.90;99.90
3156;DHT22;1588;50.892;7.082;2022-07-06T18:54:19;20.80;99.90
3156;DHT22;1588;50.892;7.082;2022-07-06T18:59:25;20.80;99.90
3156;DHT22;1588;50.892;7.082;2022-07-06T19:04:33;20.80;99.90
3156;DHT22;1588;50.892;7.082;2022-07-06T19:09:37;20.70;99.90
3156;DHT22;1588;50.892;7.082;2022-07-06T19:14:42;20.70;99.90
3156;DHT22;1588;50.892;7.082;2022-07-06T19:19:44;20.60;99.90
3156;DHT22;1588;50.892;7.082;2022-07-06T19:24:47;20.60;99.90
3156;DHT22;1588;50.892;7.082;2022-07-06T19:29:50;20.50;99.90
3156;DHT22;1588;50.892;7.082;2022-07-06T19:34:52;20.40;99.90
3156;DHT22;1588;50.892;7.082;2022-07-06T19:39:56;20.40;99.90
3156;DHT22;1588;50.892;7.082;2022-07-06T19:45:00;20.40;99.90
3156;DHT22;1588;50.892;7.082;2022-07-06T19:50:03;20.40;99.90
3156;DHT22;1588;50.892;7.082;2022-07-06T19:55:07;20.30;99.90
3156;DHT22;1588;50.892;7.082;2022-07-06T20:00:10;20.30;99.90
3156;DHT22;1588;50.892;7.082;2022-07-06T20:05:13;20.20;99.90
3156;DHT22;1588;50.892;7.082;2022-07-06T20:10:16;20.10;99.90
3156;DHT22;1588;50.892;7.082;2022-07-06T20:15:19;20.10;99.90
3156;DHT22;1588;50.892;7.082;2022-07-06T20:20:21;20.10;99.90
3156;DHT22;1588;50.892;7.082;2022-07-06T20:25:25;20.00;99.90
3156;DHT22;1588;50.892;7.082;2022-07-06T20:30:28;19.90;99.90
3156;DHT22;1588;50.892;7.082;2022-07-06T20:35:31;19.90;99.90
3156;DHT22;1588;50.892;7.082;2022-07-06T20:40:47;19.90;99.90
3156;DHT22;1588;50.892;7.082;2022-07-06T20:45:59;19.90;99.90
3156;DHT22;1588;50.892;7.082;2022-07-06T20:51:05;19.90;99.90
3156;DHT22;1588;50.892;7.082;2022-07-06T20:56:12;19.90;99.90
3156;DHT22;1588;50.892;7.082;2022-07-06T21:01:14;19.80;99.90
3156;DHT22;1588;50.892;7.082;2022-07-06T21:06:18;19.80;99.90
3156;DHT22;1588;50.892;7.082;2022-07-06T21:11:24;19.70;99.90
3156;DHT22;1588;50.892;7.082;2022-07-06T21:16:35;19.50;99.90
3156;DHT22;1588;50.892;7.082;2022-07-06T21:21:40;19.50;99.90
3156;DHT22;1588;50.892;7.082;2022-07-06T21:26:57;19.50;99.90
3156;DHT22;1588;50.892;7.082;2022-07-06T21:32:08;19.60;99.90
3156;DHT22;1588;50.892;7.082;2022-07-06T21:37:10;19.60;99.90
3156;DHT22;1588;50.892;7.082;2022-07-06T21:42:14;19.60;99.90
3156;DHT22;1588;50.892;7.082;2022-07-06T21:47:16;19.60;99.90
3156;DHT22;1588;50.892;7.082;2022-07-06T21:52:20;19.60;99.90
3156;DHT22;1588;50.892;7.082;2022-07-06T21:57:39;19.60;99.90
3156;DHT22;1588;50.892;7.082;2022-07-06T22:02:42;19.50;99.90
3156;DHT22;1588;50.892;7.082;2022-07-06T22:07:44;19.50;99.90
3156;DHT22;1588;50.892;7.082;2022-07-06T22:12:57;19.50;99.90
3156;DHT22;1588;50.892;7.082;2022-07-06T22:18:23;19.40;99.90
3156;DHT22;1588;50.892;7.082;2022-07-06T22:23:29;19.50;99.90
3156;DHT22;1588;50.892;7.082;2022-07-06T22:28:44;19.50;99.90
3156;DHT22;1588;50.892;7.082;2022-07-06T22:33:49;19.40;99.90
3156;DHT22;1588;50.892;7.082;2022-07-06T22:38:54;19.30;99.90
3156;DHT22;1588;50.892;7.082;2022-07-06T22:44:12;19.30;99.90
3156;DHT22;1588;50.892;7.082;2022-07-06T22:55:25;19.30;99.90
3156;DHT22;1588;50.892;7.082;2022-07-06T23:01:39;19.30;99.90
3156;DHT22;1588;50.892;7.082;2022-07-06T23:07:25;19.20;99.90
3156;DHT22;1588;50.892;7.082;2022-07-06T23:12:38;18.90;99.90
3156;DHT22;1588;50.892;7.082;2022-07-06T23:24:15;18.70;99.90
3156;DHT22;1588;50.892;7.082;2022-07-06T23:29:56;18.70;99.90
3156;DHT22;1588;50.892;7.082;2022-07-06T23:35:10;18.70;99.90
3156;DHT22;1588;50.892;7.082;2022-07-06T23:40:17;18.70;99.90
3156;DHT22;1588;50.892;7.082;2022-07-06T23:45:34;18.70;99.90
